sensor_id;sensor_type;location;lat;lon;timestamp;P1;P2;P0
73973;PMS5003;62336;-26.094;27.994;2023-03-31T00:00:07;26;25;
73973;PMS5003;62336;-26.094;27.994;2023-03-31T00:02:32;26;25;
73973;PMS5003;62336;-26.094;27.994;2023-03-31T00:04:58;30;30;
73973;PMS5003;62336;-26.094;27.994;2023-03-31T00:07:23;29;26;
73973;PMS5003;62336;-26.094;27.994;2023-03-31T00:09:49;27;26;
73973;PMS5003;62336;-26.094;27.994;2023-03-31T00:12:15;28;27;
73973;PMS5003;62336;-26.094;27.994;2023-03-31T00:14:40;32;30;
73973;PMS5003;62336;-26.094;27.994;2023-03-31T00:17:06;33;30;
73973;PMS5003;62336;-26.094;27.994;2023-03-31T00:19:31;28;28;
73973;PMS5003;62336;-26.094;27.994;2023-03-31T00:21:57;26;25;
73973;PMS5003;62336;-26.094;27.994;2023-03-31T00:24:22;26;24;
73973;PMS5003;62336;-26.094;27.994;2023-03-31T00:26:47;32;27;
73973;PMS5003;62336;-26.094;27.994;2023-03-31T00:29:13;28;27;
73973;PMS5003;62336;-26.094;27.994;2023-03-31T00:31:38;31;27;
73973;PMS5003;62336;-26.094;27.994;2023-03-31T00:34:04;28;25;
73973;PMS5003;62336;-26.094;27.994;2023-03-31T00:36:29;29;29;
73973;PMS5003;62336;-26.094;27.994;2023-03-31T00:38:55;30;29;
73973;PMS5003;62336;-26.094;27.994;2023-03-31T00:41:20;32;29;
73973;PMS5003;62336;-26.094;27.994;2023-03-31T00:46:12;28;26;
73973;PMS5003;62336;-26.094;27.994;2023-03-31T00:48:36;29;28;
73973;PMS5003;62336;-26.094;27.994;2023-03-31T00:51:03;32;30;
73973;PMS5003;62336;-26.094;27.994;2023-03-31T00:53:28;25;23;
73973;PMS5003;62336;-26.094;27.994;2023-03-31T00:55:53;34;29;
73973;PMS5003;62336;-26.094;27.994;2023-03-31T00:58:18;31;30;
73973;PMS5003;62336;-26.094;27.994;2023-03-31T01:00:43;31;28;
73973;PMS5003;62336;-26.094;27.994;2023-03-31T01:03:08;26;26;
73973;PMS5003;62336;-26.094;27.994;2023-03-31T01:05:35;31;30;
73973;PMS5003;62336;-26.094;27.994;2023-03-31T01:08:00;30;28;
73973;PMS5003;62336;-26.094;27.994;2023-03-31T01:10:25;28;26;
73973;PMS5003;62336;-26.094;27.994;2023-03-31T01:12:51;29;28;
73973;PMS5003;62336;-26.094;27.994;2023-03-31T01:15:16;28;26;
73973;PMS5003;62336;-26.094;27.994;2023-03-31T01:17:40;30;28;
73973;PMS5003;62336;-26.094;27.994;2023-03-31T01:20:08;31;30;
73973;PMS5003;62336;-26.094;27.994;2023-03-31T01:22:35;26;26;
73973;PMS5003;62336;-26.094;27.994;2023-03-31T01:25:00;30;29;
73973;PMS5003;62336;-26.094;27.994;2023-03-31T01:32:16;29;26;
73973;PMS5003;62336;-26.094;27.994;2023-03-31T01:37:07;27;25;
73973;PMS5003;62336;-26.094;27.994;2023-03-31T01:41:54;21;21;
73973;PMS5003;62336;-26.094;27.994;2023-03-31T01:44:19;25;23;
73973;PMS5003;62336;-26.094;27.994;2023-03-31T01:46:45;28;24;
73973;PMS5003;62336;-26.094;27.994;2023-03-31T01:49:13;23;22;
73973;PMS5003;62336;-26.094;27.994;2023-03-31T01:51:37;23;20;
73973;PMS5003;62336;-26.094;27.994;2023-03-31T01:54:01;23;21;
73973;PMS5003;62336;-26.094;27.994;2023-03-31T01:56:26;23;22;
73973;PMS5003;62336;-26.094;27.994;2023-03-31T01:58:52;25;23;
73973;PMS5003;62336;-26.094;27.994;2023-03-31T02:01:16;22;21;
73973;PMS5003;62336;-26.094;27.994;2023-03-31T02:03:44;24;21;
73973;PMS5003;62336;-26.094;27.994;2023-03-31T02:06:08;26;20;
73973;PMS5003;62336;-26.094;27.994;2023-03-31T02:08:33;23;23;
73973;PMS5003;62336;-26.094;27.994;2023-03-31T02:10:58;19;19;
73973;PMS5003;62336;-26.094;27.994;2023-03-31T02:13:24;24;22;
73973;PMS5003;62336;-26.094;27.994;2023-03-31T02:15:50;27;26;
73973;PMS5003;62336;-26.094;27.994;2023-03-31T02:18:15;26;22;
73973;PMS5003;62336;-26.094;27.994;2023-03-31T02:20:40;22;22;
73973;PMS5003;62336;-26.094;27.994;2023-03-31T02:23:06;27;22;
73973;PMS5003;62336;-26.094;27.994;2023-03-31T02:25:32;23;22;
73973;PMS5003;62336;-26.094;27.994;2023-03-31T02:27:58;22;22;
73973;PMS5003;62336;-26.094;27.994;2023-03-31T02:30:23;26;23;
73973;PMS5003;62336;-26.094;27.994;2023-03-31T02:32:48;24;23;
73973;PMS5003;62336;-26.094;27.994;2023-03-31T02:35:14;24;23;
73973;PMS5003;62336;-26.094;27.994;2023-03-31T02:37:39;22;21;
73973;PMS5003;62336;-26.094;27.994;2023-03-31T02:40:05;25;25;
73973;PMS5003;62336;-26.094;27.994;2023-03-31T02:42:29;21;21;
73973;PMS5003;62336;-26.094;27.994;2023-03-31T02:47:21;23;22;
73973;PMS5003;62336;-26.094;27.994;2023-03-31T02:49:47;22;21;
73973;PMS5003;62336;-26.094;27.994;2023-03-31T02:52:22;23;23;
73973;PMS5003;62336;-26.094;27.994;2023-03-31T02:54:42;20;20;
73973;PMS5003;62336;-26.094;27.994;2023-03-31T02:57:13;21;19;
73973;PMS5003;62336;-26.094;27.994;2023-03-31T02:59:32;23;22;
73973;PMS5003;62336;-26.094;27.994;2023-03-31T03:01:58;22;21;
73973;PMS5003;62336;-26.094;27.994;2023-03-31T03:04:26;20;20;
73973;PMS5003;62336;-26.094;27.994;2023-03-31T03:06:46;22;21;
73973;PMS5003;62336;-26.094;27.994;2023-03-31T03:09:16;22;22;
73973;PMS5003;62336;-26.094;27.994;2023-03-31T03:11:38;20;20;
73973;PMS5003;62336;-26.094;27.994;2023-03-31T03:14:03;24;24;
73973;PMS5003;62336;-26.094;27.994;2023-03-31T03:16:27;19;19;
73973;PMS5003;62336;-26.094;27.994;2023-03-31T03:18:55;20;19;
73973;PMS5003;62336;-26.094;27.994;2023-03-31T03:21:18;22;21;
73973;PMS5003;62336;-26.094;27.994;2023-03-31T03:23:43;20;19;
73973;PMS5003;62336;-26.094;27.994;2023-03-31T03:26:08;21;20;
73973;PMS5003;62336;-26.094;27.994;2023-03-31T03:28:33;20;20;
73973;PMS5003;62336;-26.094;27.994;2023-03-31T03:30:58;20;18;
73973;PMS5003;62336;-26.094;27.994;2023-03-31T03:33:24;19;19;
73973;PMS5003;62336;-26.094;27.994;2023-03-31T03:35:49;20;19;
73973;PMS5003;62336;-26.094;27.994;2023-03-31T03:38:14;21;20;
73973;PMS5003;62336;-26.094;27.994;2023-03-31T03:40:40;20;19;
73973;PMS5003;62336;-26.094;27.994;2023-03-31T03:43:06;16;15;
73973;PMS5003;62336;-26.094;27.994;2023-03-31T03:45:31;18;17;
73973;PMS5003;62336;-26.094;27.994;2023-03-31T03:47:57;16;16;
73973;PMS5003;62336;-26.094;27.994;2023-03-31T03:50:22;20;19;
73973;PMS5003;62336;-26.094;27.994;2023-03-31T03:52:48;18;18;
73973;PMS5003;62336;-26.094;27.994;2023-03-31T03:55:13;17;17;
73973;PMS5003;62336;-26.094;27.994;2023-03-31T03:57:38;23;21;
73973;PMS5003;62336;-26.094;27.994;2023-03-31T04:00:04;20;19;
73973;PMS5003;62336;-26.094;27.994;2023-03-31T04:02:29;21;20;
73973;PMS5003;62336;-26.094;27.994;2023-03-31T04:04:55;23;20;
73973;PMS5003;62336;-26.094;27.994;2023-03-31T04:07:20;19;18;
73973;PMS5003;62336;-26.094;27.994;2023-03-31T04:09:46;19;19;
73973;PMS5003;62336;-26.094;27.994;2023-03-31T04:12:12;21;19;
73973;PMS5003;62336;-26.094;27.994;2023-03-31T04:14:37;21;20;
73973;PMS5003;62336;-26.094;27.994;2023-03-31T04:17:02;22;21;
73973;PMS5003;62336;-26.094;27.994;2023-03-31T04:19:28;24;23;
73973;PMS5003;62336;-26.094;27.994;2023-03-31T04:21:53;22;21;
73973;PMS5003;62336;-26.094;27.994;2023-03-31T04:24:19;21;21;
73973;PMS5003;62336;-26.094;27.994;2023-03-31T04:26:45;30;30;
73973;PMS5003;62336;-26.094;27.994;2023-03-31T04:29:10;40;39;
73973;PMS5003;62336;-26.094;27.994;2023-03-31T04:31:34;31;28;
73973;PMS5003;62336;-26.094;27.994;2023-03-31T04:34:00;21;20;
73973;PMS5003;62336;-26.094;27.994;2023-03-31T04:36:26;21;19;
73973;PMS5003;62336;-26.094;27.994;2023-03-31T04:38:51;20;19;
73973;PMS5003;62336;-26.094;27.994;2023-03-31T04:41:17;17;17;
73973;PMS5003;62336;-26.094;27.994;2023-03-31T04:43:42;20;18;
73973;PMS5003;62336;-26.094;27.994;2023-03-31T04:46:08;20;19;
73973;PMS5003;62336;-26.094;27.994;2023-03-31T04:48:33;20;19;
73973;PMS5003;62336;-26.094;27.994;2023-03-31T04:50:59;21;20;
73973;PMS5003;62336;-26.094;27.994;2023-03-31T04:53:24;23;21;
73973;PMS5003;62336;-26.094;27.994;2023-03-31T04:55:49;27;24;
73973;PMS5003;62336;-26.094;27.994;2023-03-31T04:58:15;19;18;
73973;PMS5003;62336;-26.094;27.994;2023-03-31T05:00:40;24;23;
73973;PMS5003;62336;-26.094;27.994;2023-03-31T05:03:06;21;20;
73973;PMS5003;62336;-26.094;27.994;2023-03-31T05:05:31;20;20;
73973;PMS5003;62336;-26.094;27.994;2023-03-31T05:07:57;24;23;
73973;PMS5003;62336;-26.094;27.994;2023-03-31T05:10:22;21;20;
73973;PMS5003;62336;-26.094;27.994;2023-03-31T05:12:48;19;18;
73973;PMS5003;62336;-26.094;27.994;2023-03-31T05:15:13;20;18;
73973;PMS5003;62336;-26.094;27.994;2023-03-31T05:17:39;28;26;
73973;PMS5003;62336;-26.094;27.994;2023-03-31T05:20:05;27;22;
73973;PMS5003;62336;-26.094;27.994;2023-03-31T05:22:31;21;20;
73973;PMS5003;62336;-26.094;27.994;2023-03-31T05:24:55;22;21;
73973;PMS5003;62336;-26.094;27.994;2023-03-31T05:27:20;29;27;
73973;PMS5003;62336;-26.094;27.994;2023-03-31T05:29:45;25;24;
73973;PMS5003;62336;-26.094;27.994;2023-03-31T05:32:11;24;22;
73973;PMS5003;62336;-26.094;27.994;2023-03-31T05:34:36;20;20;
73973;PMS5003;62336;-26.094;27.994;2023-03-31T05:37:02;18;18;
73973;PMS5003;62336;-26.094;27.994;2023-03-31T05:39:28;19;19;
73973;PMS5003;62336;-26.094;27.994;2023-03-31T05:41:54;21;21;
73973;PMS5003;62336;-26.094;27.994;2023-03-31T05:44:19;24;22;
73973;PMS5003;62336;-26.094;27.994;2023-03-31T05:46:44;22;21;
73973;PMS5003;62336;-26.094;27.994;2023-03-31T05:49:10;19;19;
73973;PMS5003;62336;-26.094;27.994;2023-03-31T05:51:35;23;22;
73973;PMS5003;62336;-26.094;27.994;2023-03-31T05:54:00;21;21;
73973;PMS5003;62336;-26.094;27.994;2023-03-31T05:56:26;21;21;
73973;PMS5003;62336;-26.094;27.994;2023-03-31T05:58:51;21;20;
73973;PMS5003;62336;-26.094;27.994;2023-03-31T06:01:17;19;17;
73973;PMS5003;62336;-26.094;27.994;2023-03-31T06:03:42;21;21;
73973;PMS5003;62336;-26.094;27.994;2023-03-31T06:06:08;20;18;
73973;PMS5003;62336;-26.094;27.994;2023-03-31T06:08:34;25;23;
73973;PMS5003;62336;-26.094;27.994;2023-03-31T06:10:59;22;19;
73973;PMS5003;62336;-26.094;27.994;2023-03-31T06:13:25;20;20;
73973;PMS5003;62336;-26.094;27.994;2023-03-31T06:15:52;18;18;
73973;PMS5003;62336;-26.094;27.994;2023-03-31T06:18:16;17;17;
73973;PMS5003;62336;-26.094;27.994;2023-03-31T06:20:42;22;20;
73973;PMS5003;62336;-26.094;27.994;2023-03-31T06:23:07;17;16;
73973;PMS5003;62336;-26.094;27.994;2023-03-31T06:25:33;19;18;
73973;PMS5003;62336;-26.094;27.994;2023-03-31T06:27:59;23;19;
73973;PMS5003;62336;-26.094;27.994;2023-03-31T06:30:24;20;18;
73973;PMS5003;62336;-26.094;27.994;2023-03-31T06:32:49;17;16;
73973;PMS5003;62336;-26.094;27.994;2023-03-31T06:35:15;15;15;
73973;PMS5003;62336;-26.094;27.994;2023-03-31T06:37:40;22;22;
73973;PMS5003;62336;-26.094;27.994;2023-03-31T06:40:06;24;19;
73973;PMS5003;62336;-26.094;27.994;2023-03-31T06:42:30;22;19;
73973;PMS5003;62336;-26.094;27.994;2023-03-31T06:44:56;18;18;
73973;PMS5003;62336;-26.094;27.994;2023-03-31T06:47:21;20;18;
73973;PMS5003;62336;-26.094;27.994;2023-03-31T06:49:47;17;17;
73973;PMS5003;62336;-26.094;27.994;2023-03-31T06:52:13;19;19;
73973;PMS5003;62336;-26.094;27.994;2023-03-31T06:54:39;22;21;
73973;PMS5003;62336;-26.094;27.994;2023-03-31T06:57:04;22;20;
73973;PMS5003;62336;-26.094;27.994;2023-03-31T06:59:29;21;21;
73973;PMS5003;62336;-26.094;27.994;2023-03-31T07:01:54;20;20;
73973;PMS5003;62336;-26.094;27.994;2023-03-31T07:04:20;24;22;
73973;PMS5003;62336;-26.094;27.994;2023-03-31T07:06:46;27;22;
73973;PMS5003;62336;-26.094;27.994;2023-03-31T07:09:11;22;20;
73973;PMS5003;62336;-26.094;27.994;2023-03-31T07:11:37;23;22;
73973;PMS5003;62336;-26.094;27.994;2023-03-31T07:14:03;20;20;
73973;PMS5003;62336;-26.094;27.994;2023-03-31T07:16:28;22;20;
73973;PMS5003;62336;-26.094;27.994;2023-03-31T07:18:54;22;21;
73973;PMS5003;62336;-26.094;27.994;2023-03-31T07:21:20;22;20;
73973;PMS5003;62336;-26.094;27.994;2023-03-31T07:23:45;16;16;
73973;PMS5003;62336;-26.094;27.994;2023-03-31T07:26:10;19;19;
73973;PMS5003;62336;-26.094;27.994;2023-03-31T07:28:36;16;16;
73973;PMS5003;62336;-26.094;27.994;2023-03-31T07:31:02;16;16;
73973;PMS5003;62336;-26.094;27.994;2023-03-31T07:33:28;16;15;
73973;PMS5003;62336;-26.094;27.994;2023-03-31T07:35:53;14;13;
73973;PMS5003;62336;-26.094;27.994;2023-03-31T07:38:19;14;14;
73973;PMS5003;62336;-26.094;27.994;2023-03-31T07:40:44;12;12;
73973;PMS5003;62336;-26.094;27.994;2023-03-31T07:43:10;12;10;
73973;PMS5003;62336;-26.094;27.994;2023-03-31T07:45:37;12;10;
73973;PMS5003;62336;-26.094;27.994;2023-03-31T07:48:02;9;8;
73973;PMS5003;62336;-26.094;27.994;2023-03-31T07:50:28;10;10;
73973;PMS5003;62336;-26.094;27.994;2023-03-31T07:52:53;8;8;
73973;PMS5003;62336;-26.094;27.994;2023-03-31T07:55:19;9;8;
73973;PMS5003;62336;-26.094;27.994;2023-03-31T07:57:45;9;9;
73973;PMS5003;62336;-26.094;27.994;2023-03-31T08:00:11;9;7;
73973;PMS5003;62336;-26.094;27.994;2023-03-31T08:02:36;7;6;
73973;PMS5003;62336;-26.094;27.994;2023-03-31T08:05:01;3;3;
73973;PMS5003;62336;-26.094;27.994;2023-03-31T08:07:27;5;4;
73973;PMS5003;62336;-26.094;27.994;2023-03-31T08:09:53;5;5;
73973;PMS5003;62336;-26.094;27.994;2023-03-31T08:12:19;6;6;
73973;PMS5003;62336;-26.094;27.994;2023-03-31T08:14:44;6;5;
73973;PMS5003;62336;-26.094;27.994;2023-03-31T08:17:10;4;4;
73973;PMS5003;62336;-26.094;27.994;2023-03-31T08:19:36;7;6;
73973;PMS5003;62336;-26.094;27.994;2023-03-31T08:22:02;5;4;
73973;PMS5003;62336;-26.094;27.994;2023-03-31T08:24:28;6;6;
73973;PMS5003;62336;-26.094;27.994;2023-03-31T08:26:54;6;5;
73973;PMS5003;62336;-26.094;27.994;2023-03-31T08:29:19;9;8;
73973;PMS5003;62336;-26.094;27.994;2023-03-31T08:31:45;5;5;
73973;PMS5003;62336;-26.094;27.994;2023-03-31T08:34:11;7;6;
73973;PMS5003;62336;-26.094;27.994;2023-03-31T08:36:36;5;5;
73973;PMS5003;62336;-26.094;27.994;2023-03-31T08:39:02;6;6;
73973;PMS5003;62336;-26.094;27.994;2023-03-31T08:41:32;6;6;
73973;PMS5003;62336;-26.094;27.994;2023-03-31T08:43:54;7;6;
73973;PMS5003;62336;-26.094;27.994;2023-03-31T08:46:20;4;4;
73973;PMS5003;62336;-26.094;27.994;2023-03-31T08:48:46;6;6;
73973;PMS5003;62336;-26.094;27.994;2023-03-31T08:51:13;4;4;
73973;PMS5003;62336;-26.094;27.994;2023-03-31T08:53:38;7;6;
73973;PMS5003;62336;-26.094;27.994;2023-03-31T08:56:04;5;5;
73973;PMS5003;62336;-26.094;27.994;2023-03-31T08:58:31;4;4;
73973;PMS5003;62336;-26.094;27.994;2023-03-31T09:00:55;3;3;
73973;PMS5003;62336;-26.094;27.994;2023-03-31T09:03:22;4;3;
73973;PMS5003;62336;-26.094;27.994;2023-03-31T09:05:48;3;3;
73973;PMS5003;62336;-26.094;27.994;2023-03-31T09:08:13;3;2;
73973;PMS5003;62336;-26.094;27.994;2023-03-31T09:10:40;3;3;
73973;PMS5003;62336;-26.094;27.994;2023-03-31T09:13:05;3;3;
73973;PMS5003;62336;-26.094;27.994;2023-03-31T09:15:31;1;1;
73973;PMS5003;62336;-26.094;27.994;2023-03-31T09:17:55;4;4;
73973;PMS5003;62336;-26.094;27.994;2023-03-31T09:20:22;2;2;
73973;PMS5003;62336;-26.094;27.994;2023-03-31T09:22:47;2;2;
73973;PMS5003;62336;-26.094;27.994;2023-03-31T09:25:13;2;2;
73973;PMS5003;62336;-26.094;27.994;2023-03-31T09:27:38;3;3;
73973;PMS5003;62336;-26.094;27.994;2023-03-31T09:30:08;3;2;
73973;PMS5003;62336;-26.094;27.994;2023-03-31T09:32:30;1;1;
73973;PMS5003;62336;-26.094;27.994;2023-03-31T09:34:56;1;1;
73973;PMS5003;62336;-26.094;27.994;2023-03-31T09:37:21;3;3;
73973;PMS5003;62336;-26.094;27.994;2023-03-31T09:39:47;3;3;
73973;PMS5003;62336;-26.094;27.994;2023-03-31T09:42:13;3;3;
73973;PMS5003;62336;-26.094;27.994;2023-03-31T09:44:39;2;2;
73973;PMS5003;62336;-26.094;27.994;2023-03-31T09:47:04;4;4;
73973;PMS5003;62336;-26.094;27.994;2023-03-31T09:49:31;4;3;
73973;PMS5003;62336;-26.094;27.994;2023-03-31T09:51:59;5;5;
73973;PMS5003;62336;-26.094;27.994;2023-03-31T09:54:23;6;6;
73973;PMS5003;62336;-26.094;27.994;2023-03-31T09:56:47;7;6;
73973;PMS5003;62336;-26.094;27.994;2023-03-31T09:59:13;6;6;
73973;PMS5003;62336;-26.094;27.994;2023-03-31T10:01:38;9;8;
73973;PMS5003;62336;-26.094;27.994;2023-03-31T10:04:06;8;7;
73973;PMS5003;62336;-26.094;27.994;2023-03-31T10:06:30;6;5;
73973;PMS5003;62336;-26.094;27.994;2023-03-31T10:08:56;13;11;
73973;PMS5003;62336;-26.094;27.994;2023-03-31T10:11:22;8;8;
73973;PMS5003;62336;-26.094;27.994;2023-03-31T10:13:49;9;9;
73973;PMS5003;62336;-26.094;27.994;2023-03-31T10:16:19;9;9;
73973;PMS5003;62336;-26.094;27.994;2023-03-31T10:18:40;9;8;
73973;PMS5003;62336;-26.094;27.994;2023-03-31T10:21:05;9;9;
73973;PMS5003;62336;-26.094;27.994;2023-03-31T10:23:31;14;12;
73973;PMS5003;62336;-26.094;27.994;2023-03-31T10:25:57;14;13;
73973;PMS5003;62336;-26.094;27.994;2023-03-31T10:28:22;12;11;
73973;PMS5003;62336;-26.094;27.994;2023-03-31T10:30:49;5;5;
73973;PMS5003;62336;-26.094;27.994;2023-03-31T10:33:15;6;6;
73973;PMS5003;62336;-26.094;27.994;2023-03-31T10:35:40;4;4;
73973;PMS5003;62336;-26.094;27.994;2023-03-31T10:38:06;4;3;
73973;PMS5003;62336;-26.094;27.994;2023-03-31T10:40:32;4;4;
73973;PMS5003;62336;-26.094;27.994;2023-03-31T10:42:58;2;2;
73973;PMS5003;62336;-26.094;27.994;2023-03-31T10:45:23;4;4;
73973;PMS5003;62336;-26.094;27.994;2023-03-31T10:47:51;4;4;
73973;PMS5003;62336;-26.094;27.994;2023-03-31T10:50:15;6;6;
73973;PMS5003;62336;-26.094;27.994;2023-03-31T10:52:44;7;7;
73973;PMS5003;62336;-26.094;27.994;2023-03-31T10:55:10;3;3;
73973;PMS5003;62336;-26.094;27.994;2023-03-31T10:57:34;2;2;
73973;PMS5003;62336;-26.094;27.994;2023-03-31T11:00:02;3;3;
73973;PMS5003;62336;-26.094;27.994;2023-03-31T11:04:51;3;3;
73973;PMS5003;62336;-26.094;27.994;2023-03-31T11:07:20;4;4;
73973;PMS5003;62336;-26.094;27.994;2023-03-31T11:09:44;2;2;
73973;PMS5003;62336;-26.094;27.994;2023-03-31T11:12:10;4;4;
73973;PMS5003;62336;-26.094;27.994;2023-03-31T11:14:34;2;2;
73973;PMS5003;62336;-26.094;27.994;2023-03-31T11:16:59;5;4;
73973;PMS5003;62336;-26.094;27.994;2023-03-31T11:19:28;3;3;
73973;PMS5003;62336;-26.094;27.994;2023-03-31T11:21:52;4;4;
73973;PMS5003;62336;-26.094;27.994;2023-03-31T11:24:19;2;2;
73973;PMS5003;62336;-26.094;27.994;2023-03-31T11:26:44;2;2;
73973;PMS5003;62336;-26.094;27.994;2023-03-31T11:29:11;3;3;
73973;PMS5003;62336;-26.094;27.994;2023-03-31T11:31:35;5;5;
73973;PMS5003;62336;-26.094;27.994;2023-03-31T11:34:02;4;4;
73973;PMS5003;62336;-26.094;27.994;2023-03-31T11:36:29;3;3;
73973;PMS5003;62336;-26.094;27.994;2023-03-31T11:38:54;2;2;
73973;PMS5003;62336;-26.094;27.994;2023-03-31T11:41:17;6;5;
73973;PMS5003;62336;-26.094;27.994;2023-03-31T11:43:42;5;4;
73973;PMS5003;62336;-26.094;27.994;2023-03-31T11:46:09;5;4;
73973;PMS5003;62336;-26.094;27.994;2023-03-31T11:48:36;5;5;
73973;PMS5003;62336;-26.094;27.994;2023-03-31T11:50:59;5;4;
73973;PMS5003;62336;-26.094;27.994;2023-03-31T11:53:27;8;6;
73973;PMS5003;62336;-26.094;27.994;2023-03-31T11:55:52;6;6;
73973;PMS5003;62336;-26.094;27.994;2023-03-31T11:58:17;6;6;
73973;PMS5003;62336;-26.094;27.994;2023-03-31T12:00:43;4;4;
73973;PMS5003;62336;-26.094;27.994;2023-03-31T12:03:09;7;7;
73973;PMS5003;62336;-26.094;27.994;2023-03-31T12:05:35;6;6;
73973;PMS5003;62336;-26.094;27.994;2023-03-31T12:08:01;6;5;
73973;PMS5003;62336;-26.094;27.994;2023-03-31T12:10:30;7;7;
73973;PMS5003;62336;-26.094;27.994;2023-03-31T12:12:53;6;6;
73973;PMS5003;62336;-26.094;27.994;2023-03-31T12:15:18;6;6;
73973;PMS5003;62336;-26.094;27.994;2023-03-31T12:17:44;7;7;
73973;PMS5003;62336;-26.094;27.994;2023-03-31T12:20:11;7;7;
73973;PMS5003;62336;-26.094;27.994;2023-03-31T12:22:36;5;5;
73973;PMS5003;62336;-26.094;27.994;2023-03-31T12:25:00;8;6;
73973;PMS5003;62336;-26.094;27.994;2023-03-31T12:27:33;7;7;
73973;PMS5003;62336;-26.094;27.994;2023-03-31T12:29:53;7;7;
73973;PMS5003;62336;-26.094;27.994;2023-03-31T12:32:18;7;7;
73973;PMS5003;62336;-26.094;27.994;2023-03-31T12:34:44;6;6;
73973;PMS5003;62336;-26.094;27.994;2023-03-31T12:39:37;8;8;
73973;PMS5003;62336;-26.094;27.994;2023-03-31T12:42:10;8;8;
73973;PMS5003;62336;-26.094;27.994;2023-03-31T12:44:28;6;6;
73973;PMS5003;62336;-26.094;27.994;2023-03-31T12:46:57;6;6;
73973;PMS5003;62336;-26.094;27.994;2023-03-31T12:49:21;10;9;
73973;PMS5003;62336;-26.094;27.994;2023-03-31T12:51:49;6;6;
73973;PMS5003;62336;-26.094;27.994;2023-03-31T12:54:15;8;8;
73973;PMS5003;62336;-26.094;27.994;2023-03-31T13:01:26;9;8;
73973;PMS5003;62336;-26.094;27.994;2023-03-31T13:03:53;10;10;
73973;PMS5003;62336;-26.094;27.994;2023-03-31T13:08:50;6;5;
73973;PMS5003;62336;-26.094;27.994;2023-03-31T13:11:09;8;7;
73973;PMS5003;62336;-26.094;27.994;2023-03-31T13:13:35;5;5;
73973;PMS5003;62336;-26.094;27.994;2023-03-31T13:16:01;4;4;
73973;PMS5003;62336;-26.094;27.994;2023-03-31T13:18:27;5;5;
73973;PMS5003;62336;-26.094;27.994;2023-03-31T13:20:57;3;3;
73973;PMS5003;62336;-26.094;27.994;2023-03-31T13:23:19;6;6;
73973;PMS5003;62336;-26.094;27.994;2023-03-31T13:25:46;5;5;
73973;PMS5003;62336;-26.094;27.994;2023-03-31T13:28:13;7;6;
73973;PMS5003;62336;-26.094;27.994;2023-03-31T13:33:02;2;2;
73973;PMS5003;62336;-26.094;27.994;2023-03-31T13:35:27;3;3;
73973;PMS5003;62336;-26.094;27.994;2023-03-31T13:37:58;2;1;
73973;PMS5003;62336;-26.094;27.994;2023-03-31T13:40:23;3;3;
73973;PMS5003;62336;-26.094;27.994;2023-03-31T13:42:49;5;5;
73973;PMS5003;62336;-26.094;27.994;2023-03-31T13:45:15;3;3;
73973;PMS5003;62336;-26.094;27.994;2023-03-31T13:47:42;6;6;
73973;PMS5003;62336;-26.094;27.994;2023-03-31T13:52:33;5;5;
73973;PMS5003;62336;-26.094;27.994;2023-03-31T13:55:08;6;6;
73973;PMS5003;62336;-26.094;27.994;2023-03-31T13:57:27;4;4;
73973;PMS5003;62336;-26.094;27.994;2023-03-31T13:59:50;4;4;
73973;PMS5003;62336;-26.094;27.994;2023-03-31T14:02:24;4;4;
73973;PMS5003;62336;-26.094;27.994;2023-03-31T14:04:43;3;3;
73973;PMS5003;62336;-26.094;27.994;2023-03-31T14:07:05;2;2;
73973;PMS5003;62336;-26.094;27.994;2023-03-31T14:09:29;4;4;
73973;PMS5003;62336;-26.094;27.994;2023-03-31T14:11:54;4;4;
73973;PMS5003;62336;-26.094;27.994;2023-03-31T14:14:20;3;3;
73973;PMS5003;62336;-26.094;27.994;2023-03-31T14:16:47;4;3;
73973;PMS5003;62336;-26.094;27.994;2023-03-31T14:21:38;2;2;
73973;PMS5003;62336;-26.094;27.994;2023-03-31T14:24:04;1;1;
73973;PMS5003;62336;-26.094;27.994;2023-03-31T14:28:58;2;2;
73973;PMS5003;62336;-26.094;27.994;2023-03-31T14:31:21;3;2;
73973;PMS5003;62336;-26.094;27.994;2023-03-31T14:33:49;2;2;
73973;PMS5003;62336;-26.094;27.994;2023-03-31T14:36:13;1;1;
73973;PMS5003;62336;-26.094;27.994;2023-03-31T14:38:38;2;2;
73973;PMS5003;62336;-26.094;27.994;2023-03-31T14:41:04;2;2;
73973;PMS5003;62336;-26.094;27.994;2023-03-31T14:43:30;2;2;
73973;PMS5003;62336;-26.094;27.994;2023-03-31T14:45:58;2;2;
73973;PMS5003;62336;-26.094;27.994;2023-03-31T14:48:21;2;2;
73973;PMS5003;62336;-26.094;27.994;2023-03-31T14:50:47;2;2;
73973;PMS5003;62336;-26.094;27.994;2023-03-31T14:53:13;3;3;
73973;PMS5003;62336;-26.094;27.994;2023-03-31T14:55:38;1;1;
73973;PMS5003;62336;-26.094;27.994;2023-03-31T14:58:05;3;2;
73973;PMS5003;62336;-26.094;27.994;2023-03-31T15:00:31;3;3;
73973;PMS5003;62336;-26.094;27.994;2023-03-31T15:02:57;4;3;
73973;PMS5003;62336;-26.094;27.994;2023-03-31T15:05:24;4;3;
73973;PMS5003;62336;-26.094;27.994;2023-03-31T15:07:47;3;3;
73973;PMS5003;62336;-26.094;27.994;2023-03-31T15:12:39;3;2;
73973;PMS5003;62336;-26.094;27.994;2023-03-31T15:15:07;3;3;
73973;PMS5003;62336;-26.094;27.994;2023-03-31T15:17:34;5;5;
73973;PMS5003;62336;-26.094;27.994;2023-03-31T15:19:56;2;2;
73973;PMS5003;62336;-26.094;27.994;2023-03-31T15:22:23;4;4;
73973;PMS5003;62336;-26.094;27.994;2023-03-31T15:24:47;3;3;
73973;PMS5003;62336;-26.094;27.994;2023-03-31T15:27:14;3;3;
73973;PMS5003;62336;-26.094;27.994;2023-03-31T15:29:40;3;3;
73973;PMS5003;62336;-26.094;27.994;2023-03-31T15:32:06;3;3;
73973;PMS5003;62336;-26.094;27.994;2023-03-31T15:34:32;2;1;
73973;PMS5003;62336;-26.094;27.994;2023-03-31T15:36:57;3;3;
73973;PMS5003;62336;-26.094;27.994;2023-03-31T15:39:22;3;3;
73973;PMS5003;62336;-26.094;27.994;2023-03-31T15:41:48;3;3;
73973;PMS5003;62336;-26.094;27.994;2023-03-31T15:46:48;4;4;
73973;PMS5003;62336;-26.094;27.994;2023-03-31T15:49:10;6;5;
73973;PMS5003;62336;-26.094;27.994;2023-03-31T15:51:33;10;10;
73973;PMS5003;62336;-26.094;27.994;2023-03-31T15:53:58;9;9;
73973;PMS5003;62336;-26.094;27.994;2023-03-31T15:56:24;10;9;
73973;PMS5003;62336;-26.094;27.994;2023-03-31T15:58:55;7;7;
73973;PMS5003;62336;-26.094;27.994;2023-03-31T16:01:14;8;8;
73973;PMS5003;62336;-26.094;27.994;2023-03-31T16:03:40;12;12;
73973;PMS5003;62336;-26.094;27.994;2023-03-31T16:06:07;11;11;
73973;PMS5003;62336;-26.094;27.994;2023-03-31T16:08:34;10;10;
73973;PMS5003;62336;-26.094;27.994;2023-03-31T16:10:58;10;10;
73973;PMS5003;62336;-26.094;27.994;2023-03-31T16:13:23;9;9;
73973;PMS5003;62336;-26.094;27.994;2023-03-31T16:15:49;9;9;
73973;PMS5003;62336;-26.094;27.994;2023-03-31T16:18:15;7;7;
73973;PMS5003;62336;-26.094;27.994;2023-03-31T16:20:41;7;7;
73973;PMS5003;62336;-26.094;27.994;2023-03-31T16:25:32;8;8;
73973;PMS5003;62336;-26.094;27.994;2023-03-31T16:27:58;11;10;
73973;PMS5003;62336;-26.094;27.994;2023-03-31T16:33:00;9;9;
73973;PMS5003;62336;-26.094;27.994;2023-03-31T16:35:15;9;9;